BGBW Airport Informations

Runway Information
Runway 07 Length 6004 ft width 148 ft
Elevation 11 ft Threshold ft Heading 41
Runway 25 Length 6004 ft Width 148 ft
Elevation 112 ft Threshold ft Heading 221
Airport Frequencies
Type AFIS Name AFIS Frequency 119.1 MHZ
Airport Navaids
Type NDB Name Narsarsuaq Frequency 359 KHZ
Type DME Name Narsarsuaq Frequency 111850 KHZ
Airport Weather Information & NOTAM
ADDS - METARS form results

(1331 UTC 14 August 2022)
Data provider http://aviationweather.gov/metar/data/
 
METAR text: BGBW 141250Z AUTO VRB02KT 9999NDV NCD 12/08 Q1016
Conditions at: BGBW (NARSSARSSUAQ , GL) observed 1250 UTC 14 August 2022
Temperature: 12.0°C (54°F)
Dewpoint: 8.0°C (46°F) [RH = 76%]
Pressure (altimeter): 30.00 inches Hg (1016.0 mb)
Winds: variable direction winds at 2 MPH (2 knots; 1.0 m/s)
Visibility: missing
Ceiling: at least 12,000 feet AGL
Clouds: sky clear below 12,000 feet AGL
Weather: no significant weather observed at this time